createdAt,value
2019-06-25T00:00:43.988Z,617.50
2019-06-25T00:03:10.056Z,630.17
2019-06-25T00:05:36.140Z,603.85
2019-06-25T00:08:02.516Z,601.92
2019-06-25T00:10:28.607Z,617.25
2019-06-25T00:12:54.724Z,598.88
2019-06-25T00:15:20.809Z,612.83
2019-06-25T00:17:46.897Z,698.97
2019-06-25T00:20:13.477Z,607.00
2019-06-25T00:22:41.572Z,591.73
2019-06-25T00:25:07.941Z,591.77
2019-06-25T00:27:34.021Z,584.75
2019-06-25T00:30:00.194Z,608.40
2019-06-25T00:32:26.257Z,586.40
2019-06-25T00:34:52.362Z,606.00
2019-06-25T00:37:19.248Z,598.25
2019-06-25T00:39:45.321Z,600.83
2019-06-25T00:42:11.405Z,589.02
2019-06-25T00:44:37.476Z,587.72
2019-06-25T00:47:03.574Z,594.42
2019-06-25T00:49:29.653Z,599.00
2019-06-25T00:51:56.552Z,605.35
2019-06-25T00:54:22.876Z,582.15
2019-06-25T00:56:48.993Z,593.92
2019-06-25T00:59:15.139Z,602.20
2019-06-25T01:01:42.353Z,576.48
2019-06-25T01:04:08.495Z,578.77
2019-06-25T01:06:34.566Z,591.17
2019-06-25T01:09:00.667Z,586.83
2019-06-25T01:11:26.919Z,586.25
2019-06-25T01:13:53.000Z,594.55
2019-06-25T01:16:19.072Z,594.08
2019-06-25T01:18:45.165Z,580.17
2019-06-25T01:21:11.352Z,620.45
2019-06-25T01:23:37.427Z,599.25
2019-06-25T01:26:03.719Z,613.37
2019-06-25T01:28:29.884Z,588.60
2019-06-25T01:30:55.961Z,600.02
2019-06-25T01:33:22.050Z,619.37
2019-06-25T01:35:48.235Z,602.28
2019-06-25T01:38:14.312Z,592.42
2019-06-25T01:40:40.385Z,621.55
2019-06-25T01:43:06.676Z,597.75
2019-06-25T01:45:32.760Z,624.75
2019-06-25T01:47:58.845Z,590.77
2019-06-25T01:50:24.943Z,604.38
2019-06-25T01:52:51.108Z,592.40
2019-06-25T01:55:17.289Z,596.00
2019-06-25T01:57:43.364Z,593.15
2019-06-25T02:00:10.003Z,604.33
2019-06-25T02:02:36.396Z,615.70
2019-06-25T02:05:05.493Z,603.77
2019-06-25T02:07:31.571Z,604.35
2019-06-25T02:09:57.668Z,605.58
2019-06-25T02:12:23.787Z,627.47
2019-06-25T02:14:49.927Z,606.45
2019-06-25T02:17:16.013Z,591.10
2019-06-25T02:19:42.100Z,615.83
2019-06-25T02:22:08.193Z,602.10
2019-06-25T02:24:34.267Z,606.02
2019-06-25T02:27:00.365Z,590.62
2019-06-25T02:29:26.638Z,606.75
2019-06-25T02:31:52.704Z,605.10
2019-06-25T02:34:19.064Z,597.17
2019-06-25T02:36:45.243Z,614.10
2019-06-25T02:39:11.333Z,657.75
2019-06-25T02:41:37.904Z,588.27
2019-06-25T02:44:04.118Z,618.33
2019-06-25T02:46:30.266Z,609.10
2019-06-25T02:48:56.328Z,644.73
2019-06-25T02:51:22.417Z,612.40
2019-06-25T02:53:48.487Z,623.30
2019-06-25T02:56:14.619Z,597.42
2019-06-25T02:58:40.680Z,606.73
2019-06-25T03:01:26.827Z,614.15
2019-06-25T03:03:35.151Z,610.97
2019-06-25T03:06:01.222Z,617.05
2019-06-25T03:08:27.308Z,610.90
2019-06-25T03:10:53.724Z,611.52
2019-06-25T03:13:19.796Z,619.83
2019-06-25T03:15:46.610Z,602.05
2019-06-25T03:18:12.684Z,588.60
2019-06-25T03:20:38.958Z,618.10
2019-06-25T03:23:05.070Z,582.05
2019-06-25T03:25:31.261Z,603.23
2019-06-25T03:27:57.348Z,582.88
2019-06-25T03:30:23.541Z,593.30
2019-06-25T03:32:49.751Z,715.15
2019-06-25T03:35:16.109Z,588.95
2019-06-25T03:37:42.192Z,601.52
2019-06-25T03:40:08.784Z,590.33
2019-06-25T03:42:34.977Z,598.33
2019-06-25T03:45:01.049Z,596.37
2019-06-25T03:47:27.153Z,578.65
2019-06-25T03:49:53.220Z,617.30
2019-06-25T03:52:19.313Z,611.33
2019-06-25T03:54:45.491Z,606.42
2019-06-25T03:57:11.679Z,577.28
2019-06-25T03:59:37.823Z,603.50
2019-06-25T04:02:16.545Z,590.35
2019-06-25T04:04:31.888Z,580.60
2019-06-25T04:06:57.963Z,571.25
2019-06-25T04:09:25.076Z,585.60
2019-06-25T04:11:52.772Z,599.67
2019-06-25T04:14:19.113Z,579.02
2019-06-25T04:16:45.171Z,574.00
2019-06-25T04:19:11.252Z,576.42
2019-06-25T04:21:37.331Z,575.42
2019-06-25T04:24:03.439Z,626.15
2019-06-25T04:26:29.603Z,572.25
2019-06-25T04:28:55.678Z,590.17
2019-06-25T04:31:21.802Z,587.17
2019-06-25T04:33:47.961Z,569.77
2019-06-25T04:36:14.499Z,575.67
2019-06-25T04:38:41.044Z,580.00
2019-06-25T04:41:07.128Z,571.30
2019-06-25T04:43:33.226Z,568.40
2019-06-25T04:45:59.296Z,574.40
2019-06-25T04:48:27.114Z,581.20
2019-06-25T04:50:53.369Z,579.80
2019-06-25T04:53:19.458Z,574.35
2019-06-25T04:55:45.528Z,582.25
2019-06-25T04:58:11.613Z,585.70
2019-06-25T05:00:37.685Z,586.50
2019-06-25T05:03:03.768Z,589.42
2019-06-25T05:05:29.840Z,575.83
2019-06-25T05:07:56.052Z,570.38
2019-06-25T05:10:22.121Z,574.25
2019-06-25T05:12:48.191Z,596.67
2019-06-25T05:15:16.885Z,585.35
2019-06-25T05:17:42.973Z,602.08
2019-06-25T05:20:09.673Z,584.73
2019-06-25T05:22:36.682Z,576.10
2019-06-25T05:25:04.378Z,584.63
2019-06-25T05:27:30.467Z,581.55
2019-06-25T05:29:56.638Z,572.40
2019-06-25T05:32:22.705Z,581.67
2019-06-25T05:34:48.795Z,569.97
2019-06-25T05:37:16.871Z,584.63
2019-06-25T05:39:42.941Z,600.42
2019-06-25T05:42:09.040Z,597.92
2019-06-25T05:44:35.129Z,594.60
2019-06-25T05:47:03.382Z,575.98
2019-06-25T05:49:29.292Z,577.65
2019-06-25T05:51:55.385Z,597.00
2019-06-25T05:54:21.480Z,592.80
2019-06-25T05:56:47.586Z,598.42
2019-06-25T05:59:13.656Z,584.15
2019-06-25T06:01:39.830Z,594.55
2019-06-25T06:04:05.924Z,581.80
2019-06-25T06:06:32.193Z,591.00
2019-06-25T06:08:58.280Z,607.77
2019-06-25T06:11:26.585Z,587.83
2019-06-25T06:13:52.394Z,590.10
2019-06-25T06:16:18.471Z,604.30
2019-06-25T06:18:44.672Z,586.00
2019-06-25T06:21:10.793Z,614.55
2019-06-25T06:23:37.280Z,621.77
2019-06-25T06:26:03.882Z,599.35
2019-06-25T06:28:29.960Z,586.47
2019-06-25T06:30:56.034Z,602.25
2019-06-25T06:33:35.473Z,595.85
2019-06-25T06:35:50.146Z,591.92
2019-06-25T06:38:16.516Z,594.58
2019-06-25T06:40:42.615Z,597.17
2019-06-25T06:43:08.694Z,598.67
2019-06-25T06:45:34.968Z,633.20
2019-06-25T06:48:01.297Z,615.17
2019-06-25T06:50:27.640Z,610.63
2019-06-25T06:52:53.716Z,616.50
2019-06-25T06:55:19.911Z,600.98
2019-06-25T06:57:46.021Z,603.25
2019-06-25T07:00:12.427Z,640.98
2019-06-25T07:02:39.003Z,624.73
2019-06-25T07:05:05.388Z,612.02
2019-06-25T07:07:31.656Z,610.40
2019-06-25T07:09:57.760Z,614.60
2019-06-25T07:12:23.938Z,613.35
2019-06-25T07:14:49.977Z,605.60
2019-06-25T07:17:16.089Z,611.77
2019-06-25T07:19:42.309Z,625.50
2019-06-25T07:22:13.933Z,648.42
2019-06-25T07:24:36.574Z,680.30
2019-06-25T07:27:02.956Z,673.62
2019-06-25T07:29:29.072Z,621.72
2019-06-25T07:31:55.146Z,634.98
2019-06-25T07:34:21.326Z,744.65
2019-06-25T07:36:47.452Z,694.97
2019-06-25T07:39:13.619Z,647.95
2019-06-25T07:41:40.165Z,663.37
2019-06-25T07:44:06.308Z,656.52
2019-06-25T07:46:32.472Z,669.30
2019-06-25T07:48:58.546Z,688.00
2019-06-25T07:51:24.853Z,716.77
2019-06-25T07:53:51.020Z,770.90
2019-06-25T07:56:17.089Z,744.62
2019-06-25T07:58:43.209Z,771.00
2019-06-25T08:01:09.366Z,761.28
2019-06-25T08:03:35.457Z,745.50
2019-06-25T08:06:01.657Z,715.83
2019-06-25T08:08:27.720Z,728.95
2019-06-25T08:10:53.792Z,766.92
2019-06-25T08:13:19.887Z,778.60
2019-06-25T08:15:46.056Z,759.00
2019-06-25T08:18:12.120Z,762.65
2019-06-25T08:20:38.316Z,771.45
2019-06-25T08:23:04.409Z,748.97
2019-06-25T08:25:30.501Z,776.25
2019-06-25T08:27:56.719Z,763.08
2019-06-25T08:30:22.852Z,768.23
2019-06-25T08:32:49.057Z,807.10
2019-06-25T08:35:15.252Z,771.20
2019-06-25T08:37:41.326Z,763.10
2019-06-25T08:40:19.143Z,685.27
2019-06-25T08:42:35.986Z,743.23
2019-06-25T08:45:04.868Z,741.08
2019-06-25T08:47:31.051Z,723.62
2019-06-25T08:49:57.248Z,698.65
2019-06-25T08:52:23.316Z,709.33
2019-06-25T08:54:49.385Z,712.40
2019-06-25T08:57:15.489Z,725.40
2019-06-25T08:59:41.571Z,704.80
2019-06-25T09:02:07.724Z,766.20
2019-06-25T09:04:33.837Z,767.05
2019-06-25T09:07:00.567Z,760.55
2019-06-25T09:09:26.711Z,690.38
2019-06-25T09:11:53.156Z,697.42
2019-06-25T09:14:19.326Z,719.05
2019-06-25T09:16:45.399Z,732.12
2019-06-25T09:19:11.594Z,729.87
2019-06-25T09:21:37.784Z,724.38
2019-06-25T09:24:03.882Z,671.50
2019-06-25T09:26:30.073Z,700.08
2019-06-25T09:28:56.153Z,747.02
2019-06-25T09:31:22.226Z,773.00
2019-06-25T09:33:48.354Z,823.72
2019-06-25T09:36:15.145Z,790.80
2019-06-25T09:38:41.211Z,787.42
2019-06-25T09:41:07.235Z,804.35
2019-06-25T09:43:33.172Z,789.27
2019-06-25T09:45:59.448Z,779.80
2019-06-25T09:48:25.549Z,816.35
2019-06-25T09:50:52.224Z,814.32
2019-06-25T09:53:21.846Z,827.05
2019-06-25T09:55:46.416Z,805.83
2019-06-25T09:58:12.484Z,829.27
2019-06-25T10:00:51.294Z,797.37
2019-06-25T10:03:17.361Z,811.10
2019-06-25T10:05:43.448Z,807.80
2019-06-25T10:08:09.703Z,837.35
2019-06-25T10:10:35.828Z,829.08
2019-06-25T10:13:01.913Z,849.38
2019-06-25T10:15:28.010Z,833.75
2019-06-25T10:17:54.085Z,911.65
2019-06-25T10:20:20.266Z,897.20
2019-06-25T10:22:46.435Z,825.05
2019-06-25T10:25:12.509Z,827.60
2019-06-25T10:27:38.578Z,848.32
2019-06-25T10:30:06.766Z,874.80
2019-06-25T10:32:32.840Z,878.35
2019-06-25T10:35:02.362Z,877.25
2019-06-25T10:37:26.914Z,891.35
2019-06-25T10:39:52.990Z,896.20
2019-06-25T10:42:19.076Z,881.58
2019-06-25T10:44:45.189Z,912.23
2019-06-25T10:47:11.365Z,880.93
2019-06-25T10:49:38.232Z,860.43
2019-06-25T10:52:04.344Z,858.42
2019-06-25T10:54:30.427Z,861.30
2019-06-25T10:56:56.517Z,867.37
2019-06-25T10:59:22.711Z,872.25
2019-06-25T11:01:48.892Z,877.50
2019-06-25T11:04:15.016Z,875.10
2019-06-25T11:06:56.565Z,883.10
2019-06-25T11:09:09.644Z,857.98
2019-06-25T11:11:35.921Z,875.85
2019-06-25T11:14:08.089Z,894.00
2019-06-25T11:16:30.081Z,863.87
2019-06-25T11:18:56.150Z,865.35
2019-06-25T11:21:22.342Z,874.95
2019-06-25T11:23:48.437Z,872.65
2019-06-25T11:26:22.559Z,860.80
2019-06-25T11:28:42.512Z,900.45
2019-06-25T11:31:08.598Z,886.35
2019-06-25T11:33:34.770Z,882.27
2019-06-25T11:36:00.975Z,907.60
2019-06-25T11:38:27.052Z,923.35
2019-06-25T11:40:53.117Z,904.00
2019-06-25T11:43:19.245Z,887.52
2019-06-25T11:45:45.311Z,930.33
2019-06-25T11:48:11.388Z,893.00
2019-06-25T11:50:37.522Z,912.27
2019-06-25T11:53:04.766Z,867.80
2019-06-25T11:55:30.854Z,913.78
2019-06-25T11:57:56.965Z,894.95
2019-06-25T12:00:24.538Z,885.22
2019-06-25T12:02:50.612Z,884.95
2019-06-25T12:05:16.820Z,856.40
2019-06-25T12:07:42.917Z,883.40
2019-06-25T12:10:09.707Z,899.42
2019-06-25T12:12:35.888Z,903.88
2019-06-25T12:15:06.065Z,933.98
2019-06-25T12:17:33.830Z,944.75
2019-06-25T12:20:00.028Z,905.20
2019-06-25T12:22:26.092Z,905.38
2019-06-25T12:24:52.172Z,948.35
2019-06-25T12:27:18.967Z,919.13
2019-06-25T12:29:45.051Z,931.25
2019-06-25T12:32:11.221Z,906.63
2019-06-25T12:34:37.333Z,929.80
2019-06-25T12:37:09.472Z,929.75
2019-06-25T12:39:31.412Z,961.43
2019-06-25T12:41:57.612Z,1009.83
2019-06-25T12:44:23.686Z,1046.40
2019-06-25T12:47:02.100Z,1073.03
2019-06-25T12:49:17.781Z,1098.37
2019-06-25T12:51:43.886Z,1099.53
2019-06-25T12:54:10.042Z,1133.47
2019-06-25T12:56:36.233Z,1128.80
2019-06-25T12:59:02.296Z,1127.07
2019-06-25T13:01:40.840Z,1158.53
2019-06-25T13:03:56.350Z,1138.70
2019-06-25T13:06:22.417Z,1114.00
2019-06-25T13:08:48.487Z,1103.23
2019-06-25T13:11:14.672Z,1127.43
2019-06-25T13:13:40.743Z,1151.83
2019-06-25T13:16:06.808Z,1153.43
2019-06-25T13:18:32.895Z,1132.47
2019-06-25T13:20:58.968Z,1144.43
2019-06-25T13:23:25.070Z,1148.93
2019-06-25T13:25:51.193Z,890.40
2019-06-25T13:28:17.360Z,993.20
2019-06-25T13:30:43.432Z,1154.60
2019-06-25T13:33:09.534Z,842.80
2019-06-25T13:35:35.629Z,868.10
2019-06-25T13:38:01.701Z,1142.57
2019-06-25T13:40:27.900Z,966.60
2019-06-25T13:42:54.057Z,1069.60
2019-06-25T13:45:20.355Z,1157.27
2019-06-25T13:47:46.530Z,947.63
2019-06-25T13:50:13.005Z,813.17
2019-06-25T13:52:39.079Z,1117.73
2019-06-25T13:55:06.260Z,964.23
2019-06-25T13:57:47.647Z,1114.57
2019-06-25T14:00:00.344Z,912.40
2019-06-25T14:02:26.520Z,839.10
2019-06-25T14:04:52.592Z,847.50
2019-06-25T14:07:18.660Z,862.00
2019-06-25T14:09:44.770Z,866.30
2019-06-25T14:12:13.824Z,860.23
2019-06-25T14:14:40.700Z,859.03
2019-06-25T14:17:07.196Z,833.67
2019-06-25T14:19:33.329Z,983.63
2019-06-25T14:21:59.399Z,1168.63
2019-06-25T14:24:25.537Z,856.00
2019-06-25T14:26:51.681Z,832.47
2019-06-25T14:29:17.750Z,803.03
2019-06-25T14:31:43.876Z,812.17
2019-06-25T14:34:10.046Z,832.10
2019-06-25T14:36:36.130Z,839.83
2019-06-25T14:39:04.740Z,917.33
2019-06-25T14:41:30.838Z,1057.40
2019-06-25T14:43:57.000Z,1072.93
2019-06-25T14:46:23.097Z,1146.33
2019-06-25T14:48:49.170Z,849.30
2019-06-25T14:51:15.350Z,932.63
2019-06-25T14:53:42.477Z,1162.10
2019-06-25T14:56:08.544Z,1013.77
2019-06-25T14:58:34.720Z,815.10
2019-06-25T15:01:00.916Z,807.80
2019-06-25T15:03:27.106Z,807.27
2019-06-25T15:05:53.185Z,806.17
2019-06-25T15:08:30.623Z,848.13
2019-06-25T15:10:47.265Z,832.47
2019-06-25T15:13:13.488Z,841.77
2019-06-25T15:15:39.640Z,852.30
2019-06-25T15:18:05.707Z,863.97
2019-06-25T15:20:31.884Z,828.77
2019-06-25T15:22:58.064Z,827.33
2019-06-25T15:25:24.303Z,821.37
2019-06-25T15:27:50.477Z,805.03
2019-06-25T15:30:20.386Z,796.47
2019-06-25T15:32:46.448Z,993.20
2019-06-25T15:35:12.528Z,835.73
2019-06-25T15:37:38.616Z,760.83
2019-06-25T15:40:05.496Z,764.03
2019-06-25T15:42:31.658Z,775.93
2019-06-25T15:44:57.847Z,729.13
2019-06-25T15:47:23.931Z,738.03
2019-06-25T15:49:50.004Z,760.50
2019-06-25T15:52:16.108Z,1147.73
2019-06-25T15:54:42.175Z,815.13
2019-06-25T15:57:08.266Z,786.87
2019-06-25T15:59:34.436Z,809.90
2019-06-25T16:02:00.536Z,768.17
2019-06-25T16:04:26.698Z,802.57
2019-06-25T16:06:52.900Z,797.93
2019-06-25T16:09:18.997Z,773.30
2019-06-25T16:11:45.138Z,802.13
2019-06-25T16:14:11.265Z,806.70
2019-06-25T16:16:37.399Z,823.73
2019-06-25T16:19:03.501Z,820.00
2019-06-25T16:21:29.652Z,805.80
2019-06-25T16:23:55.739Z,817.37
2019-06-25T16:26:34.973Z,841.73
2019-06-25T16:29:01.060Z,796.20
2019-06-25T16:31:27.232Z,882.00
2019-06-25T16:33:53.402Z,810.27
2019-06-25T16:36:19.493Z,951.10
2019-06-25T16:38:45.560Z,990.57
2019-06-25T16:41:11.774Z,1134.47
2019-06-25T16:43:37.954Z,1151.30
2019-06-25T16:46:04.128Z,1130.40
2019-06-25T16:48:30.219Z,1151.50
2019-06-25T16:50:56.288Z,1139.07
2019-06-25T16:53:22.390Z,1143.87
2019-06-25T16:55:48.555Z,1141.87
2019-06-25T16:58:14.728Z,1141.80
2019-06-25T17:00:40.805Z,1099.00
2019-06-25T17:03:07.380Z,1159.23
2019-06-25T17:05:36.768Z,1122.13
2019-06-25T17:08:01.592Z,1049.73
2019-06-25T17:10:27.776Z,1038.03
2019-06-25T17:12:53.907Z,1018.67
2019-06-25T17:15:20.025Z,1012.30
2019-06-25T17:17:46.099Z,971.57
2019-06-25T17:20:12.511Z,789.17
2019-06-25T17:22:38.656Z,668.90
2019-06-25T17:25:05.656Z,697.02
2019-06-25T17:27:31.757Z,658.72
2019-06-25T17:29:57.814Z,671.10
2019-06-25T17:32:23.893Z,899.77
2019-06-25T17:34:50.051Z,861.48
2019-06-25T17:37:16.150Z,920.00
2019-06-25T17:39:51.080Z,830.08
2019-06-25T17:42:10.271Z,824.80
2019-06-25T17:44:37.496Z,838.03
2019-06-25T17:47:03.698Z,881.40
2019-06-25T17:49:29.887Z,799.52
2019-06-25T17:51:55.998Z,798.80
2019-06-25T17:54:22.408Z,807.58
2019-06-25T17:56:48.506Z,752.25
2019-06-25T17:59:14.584Z,723.23
2019-06-25T18:01:40.656Z,790.30
2019-06-25T18:04:13.319Z,766.65
2019-06-25T18:06:40.104Z,697.60
2019-06-25T18:09:07.797Z,667.55
2019-06-25T18:11:33.883Z,787.23
2019-06-25T18:13:59.981Z,718.33
2019-06-25T18:16:26.138Z,757.65
2019-06-25T18:18:52.228Z,743.87
2019-06-25T18:21:18.399Z,694.25
2019-06-25T18:23:44.511Z,723.95
2019-06-25T18:26:10.689Z,725.90
2019-06-25T18:28:36.771Z,678.83
2019-06-25T18:31:02.972Z,689.67
2019-06-25T18:33:29.043Z,693.25
2019-06-25T18:35:55.123Z,720.17
2019-06-25T18:38:21.344Z,743.13
2019-06-25T18:40:47.738Z,686.92
2019-06-25T18:43:14.114Z,672.90
2019-06-25T18:45:40.339Z,673.60
2019-06-25T18:48:06.536Z,688.45
2019-06-25T18:50:32.698Z,669.67
2019-06-25T18:52:58.765Z,660.13
2019-06-25T18:55:25.204Z,661.98
2019-06-25T18:57:51.374Z,661.65
2019-06-25T19:00:17.665Z,657.67
2019-06-25T19:02:43.760Z,675.62
2019-06-25T19:05:10.156Z,655.42
2019-06-25T19:07:36.321Z,661.23
2019-06-25T19:10:03.531Z,660.20
2019-06-25T19:12:29.625Z,644.58
2019-06-25T19:14:56.256Z,631.25
2019-06-25T19:17:23.952Z,657.77
2019-06-25T19:19:50.084Z,647.30
2019-06-25T19:22:16.156Z,650.20
2019-06-25T19:24:42.247Z,629.23
2019-06-25T19:27:08.317Z,615.45
2019-06-25T19:29:34.415Z,652.88
2019-06-25T19:32:00.609Z,660.87
2019-06-25T19:34:26.700Z,642.58
2019-06-25T19:36:52.784Z,638.20
2019-06-25T19:39:18.889Z,654.00
2019-06-25T19:41:44.981Z,639.70
2019-06-25T19:44:11.163Z,644.42
2019-06-25T19:46:37.270Z,650.45
2019-06-25T19:49:03.434Z,631.27
2019-06-25T19:51:29.515Z,635.92
2019-06-25T19:53:55.715Z,653.30
2019-06-25T19:56:22.014Z,637.52
2019-06-25T19:58:48.097Z,616.83
2019-06-25T20:01:14.193Z,631.90
2019-06-25T20:03:40.317Z,641.40
2019-06-25T20:06:08.033Z,643.17
2019-06-25T20:08:34.211Z,668.55
2019-06-25T20:11:12.061Z,669.35
2019-06-25T20:13:28.315Z,668.35
2019-06-25T20:15:54.663Z,648.75
2019-06-25T20:18:20.843Z,658.92
2019-06-25T20:20:47.023Z,671.00
2019-06-25T20:23:13.209Z,669.23
2019-06-25T20:25:39.276Z,681.58
2019-06-25T20:28:06.188Z,676.17
2019-06-25T20:30:32.429Z,687.98
2019-06-25T20:32:58.553Z,705.98
2019-06-25T20:35:26.548Z,665.10
2019-06-25T20:37:52.640Z,656.25
2019-06-25T20:40:18.722Z,646.83
2019-06-25T20:42:44.788Z,664.37
2019-06-25T20:45:12.188Z,683.10
2019-06-25T20:47:38.903Z,648.15
2019-06-25T20:50:07.205Z,651.15
2019-06-25T20:52:33.392Z,674.02
2019-06-25T20:54:59.544Z,660.65
2019-06-25T20:57:26.871Z,637.75
2019-06-25T20:59:52.979Z,644.15
2019-06-25T21:02:20.565Z,645.42
2019-06-25T21:05:00.999Z,653.55
2019-06-25T21:07:34.343Z,647.30
2019-06-25T21:10:04.211Z,653.05
2019-06-25T21:12:38.668Z,640.62
2019-06-25T21:15:10.536Z,634.87
2019-06-25T21:17:36.704Z,648.28
2019-06-25T21:20:05.303Z,651.73
2019-06-25T21:22:31.392Z,652.95
2019-06-25T21:25:04.697Z,634.83
2019-06-25T21:27:34.153Z,637.55
2019-06-25T21:30:06.080Z,647.23
2019-06-25T21:32:32.148Z,652.62
2019-06-25T21:34:58.250Z,637.42
2019-06-25T21:37:24.315Z,632.35
2019-06-25T21:39:50.407Z,633.60
2019-06-25T21:42:16.593Z,638.77
2019-06-25T21:44:42.883Z,628.35
2019-06-25T21:47:09.576Z,656.92
2019-06-25T21:49:35.749Z,633.27
2019-06-25T21:52:01.857Z,629.72
2019-06-25T21:54:27.928Z,635.55
2019-06-25T21:56:54.012Z,633.72
2019-06-25T21:59:20.109Z,639.58
2019-06-25T22:01:48.503Z,637.17
2019-06-25T22:04:14.661Z,642.30
2019-06-25T22:06:40.865Z,646.08
2019-06-25T22:09:09.144Z,656.52
2019-06-25T22:11:35.212Z,645.10
2019-06-25T22:14:01.319Z,648.92
2019-06-25T22:16:27.487Z,677.95
2019-06-25T22:18:53.670Z,672.52
2019-06-25T22:21:21.481Z,686.75
2019-06-25T22:23:47.781Z,673.20
2019-06-25T22:26:13.960Z,705.05
2019-06-25T22:28:40.152Z,690.00
2019-06-25T22:31:06.427Z,667.60
2019-06-25T22:33:32.496Z,693.42
2019-06-25T22:35:58.696Z,671.80
2019-06-25T22:38:24.792Z,664.48
2019-06-25T22:40:51.659Z,664.17
2019-06-25T22:43:17.756Z,675.85
2019-06-25T22:45:43.825Z,679.42
2019-06-25T22:48:09.923Z,663.67
2019-06-25T22:50:46.299Z,666.23
2019-06-25T22:53:04.084Z,662.92
2019-06-25T22:55:30.196Z,667.75
2019-06-25T22:57:56.281Z,673.13
2019-06-25T23:00:22.482Z,667.25
2019-06-25T23:02:48.829Z,721.20
2019-06-25T23:05:15.096Z,689.05
2019-06-25T23:07:41.166Z,679.48
2019-06-25T23:10:07.761Z,673.28
2019-06-25T23:12:34.095Z,675.22
2019-06-25T23:15:00.564Z,658.00
2019-06-25T23:17:27.018Z,681.63
2019-06-25T23:19:53.153Z,680.52
2019-06-25T23:22:19.276Z,692.45
2019-06-25T23:24:45.373Z,679.92
2019-06-25T23:27:11.548Z,657.83
2019-06-25T23:29:37.723Z,677.42
2019-06-25T23:32:03.835Z,694.13
2019-06-25T23:34:29.909Z,674.00
2019-06-25T23:36:55.996Z,675.10
2019-06-25T23:39:22.057Z,673.28
2019-06-25T23:41:48.361Z,672.25
2019-06-25T23:44:14.515Z,671.35
2019-06-25T23:46:40.660Z,684.83
2019-06-25T23:49:06.701Z,639.75
2019-06-25T23:51:32.744Z,653.55
2019-06-25T23:53:58.812Z,655.50
2019-06-25T23:56:24.857Z,633.53
2019-06-25T23:58:50.906Z,640.33
